createdAt,value
2024-04-04T00:02:02.079Z,7.00
2024-04-04T00:07:04.809Z,6.10
2024-04-04T00:12:07.560Z,4.80
2024-04-04T00:17:10.274Z,5.10
2024-04-04T00:22:13.361Z,5.60
2024-04-04T00:27:17.246Z,4.20
2024-04-04T00:32:20.417Z,6.60
2024-04-04T00:37:23.130Z,5.90
2024-04-04T00:42:25.706Z,6.20
2024-04-04T00:47:28.442Z,4.40
2024-04-04T00:52:31.256Z,6.20
2024-04-04T00:57:35.227Z,5.20
2024-04-04T01:02:38.413Z,6.10
2024-04-04T01:07:41.378Z,4.80
2024-04-04T01:12:44.003Z,5.60
2024-04-04T01:17:46.676Z,8.20
2024-04-04T01:22:50.379Z,8.30
2024-04-04T01:27:54.447Z,6.00
2024-04-04T01:32:57.089Z,6.00
2024-04-04T01:37:59.903Z,5.50
2024-04-04T01:43:03.811Z,5.80
2024-04-04T01:48:06.931Z,6.80
2024-04-04T01:53:09.560Z,5.70
2024-04-04T01:58:12.186Z,8.50
2024-04-04T02:03:15.224Z,5.00
2024-04-04T02:08:17.941Z,5.90
2024-04-04T02:13:20.958Z,6.10
2024-04-04T02:18:24.677Z,4.60
2024-04-04T02:23:29.115Z,7.60
2024-04-04T02:28:31.816Z,6.00
2024-04-04T02:33:34.510Z,6.90
2024-04-04T02:38:37.544Z,9.10
2024-04-04T02:43:40.528Z,8.70
2024-04-04T02:48:44.409Z,4.70
2024-04-04T02:53:47.051Z,5.30
2024-04-04T02:58:50.029Z,6.90
2024-04-04T03:03:52.721Z,7.20
2024-04-04T03:08:55.663Z,6.70
2024-04-04T03:13:58.541Z,5.10
2024-04-04T03:19:01.227Z,6.70
2024-04-04T03:24:03.971Z,7.20
2024-04-04T03:29:06.620Z,9.80
2024-04-04T03:34:09.304Z,9.20
2024-04-04T03:39:12.065Z,9.40
2024-04-04T03:44:14.804Z,10.80
2024-04-04T03:49:17.445Z,8.00
2024-04-04T03:54:20.089Z,9.70
2024-04-04T03:59:24.691Z,5.40
2024-04-04T04:04:27.341Z,6.50
2024-04-04T04:09:30.023Z,7.10
2024-04-04T04:14:33.308Z,4.70
2024-04-04T04:19:35.988Z,6.40
2024-04-04T04:24:38.880Z,32.40
2024-04-04T04:29:41.707Z,10.70
2024-04-04T04:34:44.372Z,11.50
2024-04-04T04:39:47.333Z,5.40
2024-04-04T04:44:49.942Z,9.00
2024-04-04T04:49:53.435Z,13.30
2024-04-04T04:54:56.198Z,14.80
2024-04-04T04:59:59.353Z,7.20
2024-04-04T05:05:16.445Z,8.80
2024-04-04T05:10:19.025Z,8.50
2024-04-04T05:15:21.705Z,7.50
2024-04-04T05:20:24.331Z,7.00
2024-04-04T05:25:28.331Z,8.20
2024-04-04T05:30:32.605Z,10.90
2024-04-04T05:35:35.340Z,8.10
2024-04-04T05:40:38.027Z,11.40
2024-04-04T05:45:40.793Z,9.10
2024-04-04T05:50:43.817Z,8.60
2024-04-04T05:55:47.976Z,7.60
2024-04-04T06:00:50.742Z,8.50
2024-04-04T06:05:53.400Z,6.00
2024-04-04T06:10:56.170Z,6.20
2024-04-04T06:16:04.794Z,8.30
2024-04-04T06:21:07.659Z,6.90
2024-04-04T06:26:10.285Z,7.40
2024-04-04T06:31:13.169Z,7.60
2024-04-04T06:36:17.567Z,6.10
2024-04-04T06:41:20.273Z,7.80
2024-04-04T06:46:23.007Z,6.80
2024-04-04T06:51:28.806Z,9.80
2024-04-04T06:56:31.687Z,6.00
2024-04-04T07:01:35.942Z,6.00
2024-04-04T07:06:39.385Z,7.20
2024-04-04T07:11:42.791Z,7.40
2024-04-04T07:16:45.583Z,9.40
2024-04-04T07:21:50.294Z,8.30
2024-04-04T07:26:53.193Z,7.90
2024-04-04T07:31:56.698Z,5.70
2024-04-04T07:36:59.574Z,7.90
2024-04-04T07:42:02.803Z,21.40
2024-04-04T07:47:06.108Z,14.10
2024-04-04T07:52:09.129Z,8.80
2024-04-04T07:57:13.283Z,9.90
2024-04-04T08:02:17.533Z,11.10
2024-04-04T08:07:20.675Z,8.20
2024-04-04T08:12:23.488Z,5.70
2024-04-04T08:17:26.254Z,5.50
2024-04-04T08:22:28.957Z,8.90
2024-04-04T08:27:31.587Z,13.40
2024-04-04T08:32:36.471Z,7.80
2024-04-04T08:37:40.190Z,6.80
2024-04-04T08:42:44.010Z,8.60
2024-04-04T08:47:46.935Z,6.60
2024-04-04T08:52:49.652Z,12.00
2024-04-04T08:57:52.279Z,8.30
2024-04-04T09:02:54.994Z,8.30
2024-04-04T09:07:58.987Z,11.60
2024-04-04T09:13:02.602Z,6.60
2024-04-04T09:18:06.229Z,7.60
2024-04-04T09:23:11.221Z,11.60
2024-04-04T09:28:15.408Z,11.80
2024-04-04T09:33:21.645Z,8.80
2024-04-04T09:38:27.327Z,9.10
2024-04-04T09:43:30.040Z,14.00
2024-04-04T09:48:37.058Z,13.70
2024-04-04T09:53:41.543Z,14.40
2024-04-04T09:58:47.587Z,9.10
2024-04-04T10:04:00.846Z,6.30
2024-04-04T10:09:16.889Z,22.90
2024-04-04T10:14:21.449Z,21.50
2024-04-04T10:19:25.466Z,10.00
2024-04-04T10:24:28.124Z,9.30
2024-04-04T10:29:36.858Z,15.20
2024-04-04T10:34:42.969Z,11.60
2024-04-04T10:39:51.264Z,9.20
2024-04-04T10:44:55.368Z,10.20
2024-04-04T10:49:58.550Z,10.60
2024-04-04T10:55:05.454Z,8.80
2024-04-04T11:00:14.815Z,9.80
2024-04-04T11:05:19.706Z,14.90
2024-04-04T11:10:24.291Z,11.30
2024-04-04T11:15:27.264Z,12.60
2024-04-04T11:20:30.014Z,11.50
2024-04-04T11:25:32.864Z,11.40
2024-04-04T11:30:35.662Z,15.40
2024-04-04T11:35:38.680Z,15.40
2024-04-04T11:40:41.980Z,13.80
2024-04-04T11:45:45.199Z,14.60
2024-04-04T11:50:48.008Z,17.80
2024-04-04T11:55:53.323Z,17.00
2024-04-04T12:00:56.076Z,17.00
2024-04-04T12:06:00.105Z,18.10
2024-04-04T12:11:05.799Z,13.60
2024-04-04T12:16:09.785Z,15.00
2024-04-04T12:21:18.828Z,16.60
2024-04-04T12:26:21.479Z,16.40
2024-04-04T12:31:24.182Z,17.50
2024-04-04T12:36:27.011Z,26.00
2024-04-04T12:41:29.922Z,35.40
2024-04-04T12:46:37.038Z,50.20
2024-04-04T12:51:40.198Z,73.10
2024-04-04T12:56:43.179Z,51.70
2024-04-04T13:01:47.498Z,23.10
2024-04-04T13:06:50.448Z,54.60
2024-04-04T13:11:53.210Z,63.80
2024-04-04T13:16:57.430Z,24.90
2024-04-04T13:22:00.400Z,59.90
2024-04-04T13:27:04.455Z,32.20
2024-04-04T13:32:07.444Z,32.50
2024-04-04T13:37:10.206Z,26.20
2024-04-04T13:42:12.957Z,30.60
2024-04-04T13:47:17.215Z,24.70
2024-04-04T13:52:20.687Z,26.40
2024-04-04T13:57:23.422Z,28.00
2024-04-04T14:02:26.101Z,23.50
2024-04-04T14:07:29.359Z,22.10
2024-04-04T14:12:32.480Z,18.90
2024-04-04T14:17:38.442Z,20.70
2024-04-04T14:22:41.206Z,21.80
2024-04-04T14:27:44.092Z,21.60
2024-04-04T14:32:47.038Z,22.90
2024-04-04T14:37:51.730Z,22.80
2024-04-04T14:42:54.526Z,21.50
2024-04-04T14:47:57.569Z,21.40
2024-04-04T14:53:00.270Z,21.60
2024-04-04T14:58:09.214Z,21.50
2024-04-04T15:03:13.103Z,21.10
2024-04-04T15:08:16.106Z,30.20
2024-04-04T15:13:19.107Z,23.90
2024-04-04T15:18:22.022Z,22.60
2024-04-04T15:23:24.998Z,21.10
2024-04-04T15:28:27.715Z,21.40
2024-04-04T15:33:31.240Z,27.40
2024-04-04T15:38:34.070Z,31.70
2024-04-04T15:43:37.187Z,102.50
2024-04-04T15:48:42.845Z,34.10
2024-04-04T15:53:45.510Z,31.40
2024-04-04T15:58:48.111Z,38.10
2024-04-04T16:03:50.812Z,38.10
2024-04-04T16:08:54.472Z,68.10
2024-04-04T16:13:57.564Z,38.10
2024-04-04T16:19:00.263Z,34.20
2024-04-04T16:24:04.156Z,23.00
2024-04-04T16:29:07.863Z,27.60
2024-04-04T16:34:11.163Z,22.30
2024-04-04T16:39:14.610Z,20.10
2024-04-04T16:44:17.699Z,22.90
2024-04-04T16:49:20.419Z,20.50
2024-04-04T16:54:23.199Z,23.50
2024-04-04T16:59:25.888Z,21.20
2024-04-04T17:04:28.561Z,21.70
2024-04-04T17:09:31.225Z,23.00
2024-04-04T17:14:34.661Z,25.50
2024-04-04T17:19:38.600Z,20.60
2024-04-04T17:24:41.682Z,20.70
2024-04-04T17:29:46.371Z,20.10
2024-04-04T17:34:49.048Z,24.10
2024-04-04T17:39:51.699Z,21.50
2024-04-04T17:44:54.382Z,25.20
2024-04-04T17:49:57.596Z,25.60
2024-04-04T17:55:00.982Z,25.00
2024-04-04T18:00:05.244Z,21.40
2024-04-04T18:05:08.130Z,21.00
2024-04-04T18:10:10.894Z,24.40
2024-04-04T18:20:18.372Z,22.40
2024-04-04T18:25:21.568Z,33.60
2024-04-04T18:30:24.282Z,33.30
2024-04-04T18:35:27.128Z,25.00
2024-04-04T18:40:29.870Z,27.70
2024-04-04T18:45:33.076Z,24.10
2024-04-04T18:50:36.547Z,26.50
2024-04-04T18:55:39.297Z,32.70
2024-04-04T19:00:45.997Z,27.60
2024-04-04T19:05:55.512Z,32.50
2024-04-04T19:10:58.856Z,30.00
2024-04-04T19:16:03.808Z,31.10
2024-04-04T19:21:09.728Z,21.40
2024-04-04T19:26:12.385Z,23.20
2024-04-04T19:31:15.053Z,24.90
2024-04-04T19:36:18.476Z,21.90
2024-04-04T19:41:21.089Z,23.20
2024-04-04T19:46:23.783Z,22.70
2024-04-04T19:51:26.427Z,23.50
2024-04-04T19:56:29.031Z,29.40
2024-04-04T20:01:32.263Z,21.90
2024-04-04T20:06:34.896Z,22.30
2024-04-04T20:11:38.154Z,24.20
2024-04-04T20:16:42.115Z,23.70
2024-04-04T20:21:45.283Z,23.80
2024-04-04T20:26:47.959Z,29.70
2024-04-04T20:31:50.780Z,22.20
2024-04-04T20:36:53.409Z,19.50
2024-04-04T20:41:56.189Z,21.20
2024-04-04T20:46:58.845Z,20.40
2024-04-04T20:52:02.242Z,21.50
2024-04-04T20:57:05.197Z,24.80
2024-04-04T21:02:08.743Z,21.40
2024-04-04T21:07:11.368Z,18.70
2024-04-04T21:12:14.010Z,23.50
2024-04-04T21:17:17.181Z,22.00
2024-04-04T21:22:19.817Z,26.50
2024-04-04T21:27:22.772Z,24.20
2024-04-04T21:32:25.378Z,32.30
2024-04-04T21:37:28.010Z,31.10
2024-04-04T21:42:32.654Z,30.80
2024-04-04T21:47:35.676Z,31.80
2024-04-04T21:52:38.539Z,34.00
2024-04-04T21:57:41.255Z,32.50
2024-04-04T22:02:44.459Z,26.20
2024-04-04T22:07:47.107Z,27.40
2024-04-04T22:12:49.828Z,27.30
2024-04-04T22:17:53.404Z,27.60
2024-04-04T22:22:56.000Z,27.50
2024-04-04T22:27:59.230Z,23.90
2024-04-04T22:33:03.007Z,19.50
2024-04-04T22:38:06.080Z,16.60
2024-04-04T22:43:09.283Z,16.50
2024-04-04T22:48:15.554Z,11.30
2024-04-04T22:53:18.485Z,12.40
2024-04-04T22:58:24.135Z,12.60
2024-04-04T23:08:30.522Z,12.70
2024-04-04T23:13:34.630Z,13.30
2024-04-04T23:18:37.377Z,13.60
2024-04-04T23:23:40.643Z,14.20
2024-04-04T23:28:45.346Z,12.70
2024-04-04T23:33:48.040Z,12.20
2024-04-04T23:38:51.104Z,10.60
2024-04-04T23:43:53.759Z,13.10
2024-04-04T23:48:56.363Z,6.90
2024-04-04T23:53:59.469Z,11.60
2024-04-04T23:59:02.333Z,11.00
